createdAt,value
2024-02-02T00:02:04.793Z,75.70
2024-02-02T00:04:32.134Z,75.70
2024-02-02T00:06:59.468Z,75.80
2024-02-02T00:09:26.879Z,76.60
2024-02-02T00:11:54.425Z,76.20
2024-02-02T00:14:21.803Z,75.30
2024-02-02T00:16:49.152Z,75.10
2024-02-02T00:19:16.545Z,75.30
2024-02-02T00:21:43.933Z,75.60
2024-02-02T00:24:11.257Z,75.30
2024-02-02T00:26:38.472Z,73.90
2024-02-02T00:29:06.423Z,73.80
2024-02-02T00:31:33.678Z,75.10
2024-02-02T00:34:01.183Z,75.10
2024-02-02T00:36:28.711Z,75.30
2024-02-02T00:38:56.127Z,75.70
2024-02-02T00:41:23.444Z,76.30
2024-02-02T00:43:50.761Z,76.80
2024-02-02T00:46:18.123Z,77.10
2024-02-02T00:48:45.476Z,76.60
2024-02-02T00:51:12.872Z,76.60
2024-02-02T00:53:40.226Z,76.90
2024-02-02T00:56:07.603Z,76.90
2024-02-02T00:58:35.486Z,76.40
2024-02-02T01:01:02.756Z,77.30
2024-02-02T01:03:30.203Z,77.80
2024-02-02T01:05:57.672Z,77.20
2024-02-02T01:08:25.245Z,79.50
2024-02-02T01:10:52.693Z,79.30
2024-02-02T01:13:20.028Z,78.40
2024-02-02T01:15:47.918Z,77.90
2024-02-02T01:18:16.316Z,78.90
2024-02-02T01:20:44.005Z,79.20
2024-02-02T01:23:11.367Z,77.70
2024-02-02T01:25:39.146Z,77.20
2024-02-02T01:28:06.524Z,77.60
2024-02-02T01:30:33.830Z,77.10
2024-02-02T01:33:01.618Z,76.30
2024-02-02T01:35:29.146Z,76.10
2024-02-02T01:37:56.393Z,74.80
2024-02-02T01:40:23.690Z,74.00
2024-02-02T01:42:51.107Z,72.70
2024-02-02T01:45:18.453Z,72.00
2024-02-02T01:47:45.856Z,72.20
2024-02-02T01:50:13.696Z,72.50
2024-02-02T01:52:41.031Z,72.10
2024-02-02T01:55:09.215Z,71.60
2024-02-02T01:57:36.984Z,71.10
2024-02-02T02:00:05.788Z,71.80
2024-02-02T02:02:33.220Z,72.10
2024-02-02T02:05:00.611Z,70.00
2024-02-02T02:07:28.433Z,71.40
2024-02-02T02:09:55.752Z,68.50
2024-02-02T02:12:23.654Z,68.10
2024-02-02T02:14:51.080Z,68.20
2024-02-02T02:17:18.492Z,70.30
2024-02-02T02:19:48.930Z,72.30
2024-02-02T02:22:16.245Z,73.20
2024-02-02T02:24:43.550Z,73.40
2024-02-02T02:27:11.932Z,74.00
2024-02-02T02:29:39.213Z,74.70
2024-02-02T02:32:09.629Z,74.00
2024-02-02T02:34:37.617Z,70.70
2024-02-02T02:37:05.188Z,73.10
2024-02-02T02:39:32.530Z,74.40
2024-02-02T02:41:59.881Z,73.70
2024-02-02T02:44:28.079Z,73.40
2024-02-02T02:46:55.315Z,72.80
2024-02-02T02:49:22.835Z,72.70
2024-02-02T02:51:50.384Z,73.50
2024-02-02T02:54:17.697Z,73.50
2024-02-02T02:56:44.936Z,73.80
2024-02-02T02:59:12.309Z,72.90
2024-02-02T03:01:39.697Z,73.10
2024-02-02T03:04:07.034Z,73.20
2024-02-02T03:06:34.465Z,73.30
2024-02-02T03:09:01.833Z,72.30
2024-02-02T03:11:30.247Z,71.60
2024-02-02T03:13:58.290Z,72.40
2024-02-02T03:16:25.597Z,72.80
2024-02-02T03:18:53.047Z,73.70
2024-02-02T03:21:20.443Z,74.40
2024-02-02T03:23:47.719Z,74.10
2024-02-02T03:26:15.005Z,74.80
2024-02-02T03:28:42.436Z,75.00
2024-02-02T03:31:09.878Z,74.70
2024-02-02T03:33:37.280Z,74.50
2024-02-02T03:36:04.874Z,75.10
2024-02-02T03:38:32.241Z,75.60
2024-02-02T03:40:59.511Z,75.70
2024-02-02T03:43:26.775Z,75.60
2024-02-02T03:45:54.034Z,75.00
2024-02-02T03:48:21.383Z,76.30
2024-02-02T03:50:49.082Z,78.20
2024-02-02T03:53:16.373Z,78.50
2024-02-02T03:55:43.672Z,78.20
2024-02-02T03:58:11.074Z,77.40
2024-02-02T04:00:38.591Z,76.70
2024-02-02T04:03:06.302Z,76.20
2024-02-02T04:05:33.589Z,76.60
2024-02-02T04:08:00.963Z,76.10
2024-02-02T04:10:28.544Z,75.00
2024-02-02T04:12:55.817Z,75.40
2024-02-02T04:15:23.180Z,75.30
2024-02-02T04:17:50.496Z,74.90
2024-02-02T04:20:17.767Z,72.10
2024-02-02T04:22:45.039Z,72.00
2024-02-02T04:25:12.333Z,72.40
2024-02-02T04:27:39.602Z,71.90
2024-02-02T04:30:07.699Z,71.30
2024-02-02T04:32:35.105Z,73.00
2024-02-02T04:35:02.459Z,73.90
2024-02-02T04:37:29.776Z,74.40
2024-02-02T04:39:57.003Z,74.00
2024-02-02T04:42:24.507Z,73.80
2024-02-02T04:44:51.805Z,73.20
2024-02-02T04:47:19.155Z,73.00
2024-02-02T04:49:46.533Z,72.40
2024-02-02T04:52:14.681Z,72.70
2024-02-02T04:54:42.229Z,73.70
2024-02-02T04:57:09.504Z,74.70
2024-02-02T04:59:36.784Z,75.70
2024-02-02T05:02:06.466Z,76.20
2024-02-02T05:04:34.324Z,76.50
2024-02-02T05:07:01.816Z,76.10
2024-02-02T05:09:29.133Z,75.30
2024-02-02T05:11:56.446Z,74.40
2024-02-02T05:14:23.828Z,75.00
2024-02-02T05:16:51.068Z,75.30
2024-02-02T05:19:18.437Z,74.40
2024-02-02T05:21:46.015Z,74.90
2024-02-02T05:24:26.261Z,75.60
2024-02-02T05:27:00.989Z,75.20
2024-02-02T05:29:28.330Z,74.00
2024-02-02T05:31:55.649Z,73.70
2024-02-02T05:34:23.054Z,73.10
2024-02-02T05:36:50.431Z,73.10
2024-02-02T05:39:18.095Z,72.70
2024-02-02T05:41:45.446Z,71.90
2024-02-02T05:44:12.839Z,72.60
2024-02-02T05:46:40.093Z,73.50
2024-02-02T05:49:07.393Z,73.80
2024-02-02T05:51:34.749Z,74.20
2024-02-02T05:54:02.251Z,74.50
2024-02-02T05:56:29.510Z,74.40
2024-02-02T05:58:56.884Z,74.80
2024-02-02T06:01:24.303Z,75.10
2024-02-02T06:03:51.831Z,75.80
2024-02-02T06:06:19.312Z,76.00
2024-02-02T06:08:46.885Z,76.60
2024-02-02T06:11:14.136Z,79.50
2024-02-02T06:13:42.201Z,79.20
2024-02-02T06:16:10.722Z,78.40
2024-02-02T06:18:38.494Z,76.50
2024-02-02T06:21:06.038Z,75.80
2024-02-02T06:23:33.464Z,75.50
2024-02-02T06:26:00.709Z,75.40
2024-02-02T06:28:28.214Z,76.00
2024-02-02T06:30:55.710Z,76.20
2024-02-02T06:36:09.107Z,77.00
2024-02-02T06:38:36.379Z,76.60
2024-02-02T06:41:03.828Z,77.40
2024-02-02T06:43:31.098Z,77.30
2024-02-02T06:45:58.428Z,76.80
2024-02-02T06:48:26.115Z,76.80
2024-02-02T06:50:53.515Z,76.50
2024-02-02T06:53:20.895Z,76.80
2024-02-02T06:55:49.945Z,77.20
2024-02-02T06:58:52.689Z,77.20
2024-02-02T07:01:19.985Z,77.00
2024-02-02T07:03:47.857Z,77.10
2024-02-02T07:06:16.736Z,77.30
2024-02-02T07:08:44.128Z,77.60
2024-02-02T07:11:14.881Z,78.70
2024-02-02T07:13:50.847Z,78.50
2024-02-02T07:16:44.654Z,78.70
2024-02-02T07:19:52.225Z,77.60
2024-02-02T07:22:41.380Z,77.00
2024-02-02T07:25:20.233Z,77.90
2024-02-02T07:27:55.660Z,77.50
2024-02-02T07:30:46.196Z,76.90
2024-02-02T07:33:23.508Z,78.40
2024-02-02T07:35:51.720Z,77.80
2024-02-02T07:38:50.447Z,77.80
2024-02-02T07:44:13.292Z,77.90
2024-02-02T07:46:40.597Z,77.70
2024-02-02T07:49:07.989Z,77.70
2024-02-02T07:51:39.103Z,77.60
2024-02-02T07:54:06.462Z,78.70
2024-02-02T07:56:33.828Z,78.70
2024-02-02T07:59:01.950Z,79.00
2024-02-02T08:01:32.702Z,78.90
2024-02-02T08:04:00.302Z,78.30
2024-02-02T08:06:27.889Z,78.20
2024-02-02T08:08:55.214Z,78.00
2024-02-02T08:11:26.301Z,77.60
2024-02-02T08:13:53.602Z,78.30
2024-02-02T08:16:20.930Z,78.30
2024-02-02T08:18:48.452Z,77.50
2024-02-02T08:21:15.791Z,77.20
2024-02-02T08:23:44.409Z,77.60
2024-02-02T08:26:11.730Z,77.50
2024-02-02T08:28:48.762Z,75.90
2024-02-02T08:31:19.480Z,76.70
2024-02-02T08:33:46.932Z,76.00
2024-02-02T08:36:15.094Z,75.40
2024-02-02T08:38:42.537Z,75.90
2024-02-02T08:41:10.144Z,75.40
2024-02-02T08:43:38.341Z,74.40
2024-02-02T08:46:19.151Z,72.60
2024-02-02T08:48:51.962Z,72.30
2024-02-02T08:51:22.549Z,71.30
2024-02-02T08:54:16.164Z,71.00
2024-02-02T08:57:10.165Z,70.60
2024-02-02T08:59:43.360Z,71.00
2024-02-02T09:02:37.372Z,71.40
2024-02-02T09:05:53.773Z,70.70
2024-02-02T09:08:28.409Z,71.50
2024-02-02T09:11:01.425Z,72.00
2024-02-02T09:13:31.476Z,72.10
2024-02-02T09:15:58.825Z,71.80
2024-02-02T09:19:11.793Z,73.50
2024-02-02T09:21:39.103Z,73.70
2024-02-02T09:24:12.684Z,73.10
2024-02-02T09:26:40.566Z,74.20
2024-02-02T09:29:11.003Z,71.20
2024-02-02T09:31:39.396Z,67.60
2024-02-02T09:34:10.663Z,67.10
2024-02-02T09:39:52.050Z,65.90
2024-02-02T09:42:51.814Z,66.40
2024-02-02T09:45:40.559Z,66.40
2024-02-02T09:48:50.241Z,66.60
2024-02-02T09:51:39.856Z,65.90
2024-02-02T09:54:30.131Z,65.40
2024-02-02T09:57:25.205Z,64.90
2024-02-02T10:00:16.761Z,63.70
2024-02-02T10:03:11.883Z,63.70
2024-02-02T10:05:41.952Z,63.90
2024-02-02T10:08:44.182Z,62.40
2024-02-02T10:11:23.221Z,65.00
2024-02-02T10:14:20.940Z,59.70
2024-02-02T10:17:08.894Z,61.10
2024-02-02T10:19:41.958Z,57.70
2024-02-02T10:22:29.869Z,56.40
2024-02-02T10:25:24.663Z,55.10
2024-02-02T10:28:01.131Z,52.90
2024-02-02T10:31:05.900Z,52.90
2024-02-02T10:33:59.037Z,53.40
2024-02-02T10:36:57.452Z,53.10
2024-02-02T10:39:52.586Z,51.60
2024-02-02T10:42:35.940Z,51.10
2024-02-02T10:45:16.670Z,51.60
2024-02-02T10:47:46.988Z,51.50
2024-02-02T10:50:44.385Z,51.60
2024-02-02T10:53:41.334Z,51.10
2024-02-02T10:56:34.356Z,50.80
2024-02-02T10:59:31.975Z,50.90
2024-02-02T11:02:08.101Z,49.80
2024-02-02T11:04:52.224Z,48.60
2024-02-02T11:07:37.892Z,48.60
2024-02-02T11:10:09.372Z,47.20
2024-02-02T11:12:57.538Z,46.50
2024-02-02T11:15:30.635Z,45.10
2024-02-02T11:18:16.730Z,40.90
2024-02-02T11:21:24.669Z,43.10
2024-02-02T11:24:01.067Z,46.50
2024-02-02T11:26:46.078Z,48.50
2024-02-02T11:29:29.024Z,47.60
2024-02-02T11:35:12.586Z,43.10
2024-02-02T11:38:02.890Z,48.30
2024-02-02T11:40:30.756Z,49.60
2024-02-02T11:43:00.278Z,50.40
2024-02-02T11:45:33.041Z,51.80
2024-02-02T11:48:06.753Z,52.00
2024-02-02T11:50:48.209Z,51.60
2024-02-02T11:53:36.378Z,52.70
2024-02-02T11:56:24.002Z,52.90
2024-02-02T11:59:06.059Z,52.60
2024-02-02T12:02:19.691Z,53.60
2024-02-02T12:04:53.920Z,54.00
2024-02-02T12:07:41.600Z,53.50
2024-02-02T12:10:09.568Z,53.30
2024-02-02T12:12:46.787Z,52.90
2024-02-02T12:15:15.911Z,52.30
2024-02-02T12:17:43.955Z,52.80
2024-02-02T12:20:13.009Z,53.00
2024-02-02T12:22:43.962Z,51.40
2024-02-02T12:25:12.465Z,50.00
2024-02-02T12:27:40.581Z,48.40
2024-02-02T12:30:10.661Z,47.80
2024-02-02T12:32:39.819Z,48.00
2024-02-02T12:35:07.705Z,47.00
2024-02-02T12:37:49.419Z,47.20
2024-02-02T12:40:17.391Z,47.00
2024-02-02T12:42:45.092Z,47.10
2024-02-02T12:45:16.064Z,46.30
2024-02-02T12:47:43.793Z,41.10
2024-02-02T12:50:16.699Z,38.50
2024-02-02T12:52:48.279Z,36.90
2024-02-02T12:55:15.999Z,35.90
2024-02-02T12:57:43.495Z,35.50
2024-02-02T13:00:17.498Z,36.20
2024-02-02T13:02:47.972Z,35.40
2024-02-02T13:05:20.431Z,36.10
2024-02-02T13:07:50.801Z,35.20
2024-02-02T13:10:37.168Z,36.10
2024-02-02T13:13:13.457Z,35.40
2024-02-02T13:15:42.297Z,36.60
2024-02-02T13:18:30.369Z,35.70
2024-02-02T13:20:57.954Z,35.60
2024-02-02T13:23:31.110Z,34.40
2024-02-02T13:26:05.447Z,35.60
2024-02-02T13:28:39.982Z,35.10
2024-02-02T13:31:20.065Z,35.70
2024-02-02T13:34:06.320Z,34.70
2024-02-02T13:36:40.728Z,34.80
2024-02-02T13:39:08.389Z,35.30
2024-02-02T13:41:37.572Z,36.40
2024-02-02T13:44:09.388Z,40.10
2024-02-02T13:46:46.430Z,39.80
2024-02-02T13:49:31.342Z,39.20
2024-02-02T13:52:06.022Z,38.50
2024-02-02T13:54:36.706Z,39.60
2024-02-02T13:57:04.422Z,40.00
2024-02-02T13:59:32.087Z,40.10
2024-02-02T14:02:10.244Z,39.10
2024-02-02T14:04:38.190Z,39.50
2024-02-02T14:07:23.782Z,40.60
2024-02-02T14:10:05.308Z,37.40
2024-02-02T14:12:39.673Z,36.30
2024-02-02T14:15:07.776Z,36.00
2024-02-02T14:17:35.449Z,36.10
2024-02-02T14:20:05.699Z,35.80
2024-02-02T14:22:34.088Z,35.40
2024-02-02T14:25:05.351Z,36.20
2024-02-02T14:27:40.544Z,37.00
2024-02-02T14:30:09.567Z,36.30
2024-02-02T14:32:37.868Z,36.50
2024-02-02T14:35:06.070Z,36.10
2024-02-02T14:37:33.953Z,36.40
2024-02-02T14:40:02.435Z,37.00
2024-02-02T14:42:29.894Z,40.20
2024-02-02T14:45:00.054Z,42.60
2024-02-02T14:47:27.993Z,45.40
2024-02-02T14:49:55.530Z,46.00
2024-02-02T14:52:22.943Z,46.90
2024-02-02T14:54:50.212Z,43.90
2024-02-02T14:57:19.144Z,43.70
2024-02-02T14:59:52.513Z,42.30
2024-02-02T15:02:20.165Z,40.90
2024-02-02T15:04:47.627Z,40.40
2024-02-02T15:07:15.270Z,42.90
2024-02-02T15:09:43.185Z,45.30
2024-02-02T15:12:12.000Z,46.70
2024-02-02T15:20:12.778Z,49.40
2024-02-02T15:22:40.273Z,49.60
2024-02-02T15:25:11.915Z,50.20
2024-02-02T15:27:40.072Z,50.40
2024-02-02T15:30:08.181Z,51.10
2024-02-02T15:32:35.509Z,51.70
2024-02-02T15:35:02.959Z,51.40
2024-02-02T15:37:30.374Z,51.90
2024-02-02T15:39:58.678Z,51.90
2024-02-02T15:42:29.673Z,52.00
2024-02-02T15:44:59.530Z,52.60
2024-02-02T15:47:27.916Z,53.20
2024-02-02T15:49:57.453Z,54.00
2024-02-02T15:52:25.143Z,56.20
2024-02-02T15:54:55.891Z,55.40
2024-02-02T15:57:23.231Z,56.00
2024-02-02T15:59:50.911Z,56.50
2024-02-02T16:02:18.546Z,56.90
2024-02-02T16:04:45.886Z,57.20
2024-02-02T16:07:13.579Z,57.50
2024-02-02T16:09:42.563Z,58.10
2024-02-02T16:12:13.763Z,59.30
2024-02-02T16:14:42.657Z,59.50
2024-02-02T16:17:10.072Z,60.70
2024-02-02T16:19:37.746Z,60.90
2024-02-02T16:22:06.245Z,61.40
2024-02-02T16:24:37.016Z,61.40
2024-02-02T16:27:04.650Z,61.70
2024-02-02T16:29:31.961Z,62.40
2024-02-02T16:31:59.326Z,62.00
2024-02-02T16:34:26.758Z,61.90
2024-02-02T16:36:54.237Z,62.10
2024-02-02T16:39:21.761Z,61.80
2024-02-02T16:41:49.157Z,62.10
2024-02-02T16:44:17.169Z,62.40
2024-02-02T16:46:45.516Z,62.60
2024-02-02T16:49:13.010Z,63.00
2024-02-02T16:51:43.266Z,63.10
2024-02-02T16:54:11.174Z,63.10
2024-02-02T16:56:38.834Z,63.10
2024-02-02T16:59:06.851Z,61.80
2024-02-02T17:01:35.982Z,61.10
2024-02-02T17:04:04.427Z,62.90
2024-02-02T17:06:32.219Z,63.00
2024-02-02T17:09:00.075Z,63.30
2024-02-02T17:11:28.379Z,62.10
2024-02-02T17:13:56.162Z,60.20
2024-02-02T17:16:23.662Z,59.00
2024-02-02T17:18:51.783Z,58.50
2024-02-02T17:21:19.355Z,58.60
2024-02-02T17:23:46.864Z,57.80
2024-02-02T17:26:19.192Z,57.80
2024-02-02T17:28:46.737Z,57.70
2024-02-02T17:31:15.594Z,57.80
2024-02-02T17:33:43.534Z,57.80
2024-02-02T17:36:16.523Z,57.60
2024-02-02T17:38:46.370Z,57.60
2024-02-02T17:41:15.946Z,57.30
2024-02-02T17:43:44.840Z,57.90
2024-02-02T17:46:16.546Z,58.30
2024-02-02T17:48:44.316Z,58.00
2024-02-02T17:51:12.044Z,57.80
2024-02-02T17:53:41.495Z,57.20
2024-02-02T17:56:09.805Z,57.30
2024-02-02T17:58:37.437Z,57.50
2024-02-02T18:01:08.443Z,57.60
2024-02-02T18:03:36.626Z,57.60
2024-02-02T18:06:05.792Z,57.90
2024-02-02T18:08:33.612Z,58.20
2024-02-02T18:11:01.410Z,58.20
2024-02-02T18:13:29.050Z,58.50
2024-02-02T18:16:05.442Z,58.30
2024-02-02T18:18:33.390Z,58.30
2024-02-02T18:21:00.729Z,58.40
2024-02-02T18:23:29.781Z,59.50
2024-02-02T18:25:57.257Z,60.30
2024-02-02T18:28:27.829Z,59.20
2024-02-02T18:30:55.541Z,59.20
2024-02-02T18:33:23.209Z,60.00
2024-02-02T18:35:50.802Z,59.00
2024-02-02T18:38:18.967Z,60.40
2024-02-02T18:40:48.988Z,60.50
2024-02-02T18:43:16.672Z,60.50
2024-02-02T18:45:43.948Z,60.00
2024-02-02T18:48:11.843Z,60.60
2024-02-02T18:50:39.264Z,61.60
2024-02-02T18:53:06.586Z,62.20
2024-02-02T18:55:33.894Z,61.20
2024-02-02T18:58:01.211Z,61.60
2024-02-02T19:00:35.140Z,60.70
2024-02-02T19:03:02.842Z,61.00
2024-02-02T19:05:30.618Z,61.40
2024-02-02T19:08:00.012Z,61.70
2024-02-02T19:10:27.450Z,62.00
2024-02-02T19:12:55.061Z,61.50
2024-02-02T19:15:24.074Z,61.90
2024-02-02T19:17:51.440Z,62.10
2024-02-02T19:20:18.905Z,61.40
2024-02-02T19:22:46.333Z,61.40
2024-02-02T19:25:13.647Z,61.60
2024-02-02T19:27:41.008Z,61.80
2024-02-02T19:30:09.160Z,62.20
2024-02-02T19:32:36.541Z,62.90
2024-02-02T19:35:04.002Z,63.10
2024-02-02T19:37:32.103Z,62.30
2024-02-02T19:39:59.474Z,62.40
2024-02-02T19:42:26.967Z,62.50
2024-02-02T19:44:54.717Z,63.70
2024-02-02T19:47:22.048Z,63.40
2024-02-02T19:49:49.492Z,61.60
2024-02-02T19:52:16.913Z,61.30
2024-02-02T19:54:44.267Z,61.00
2024-02-02T19:57:11.734Z,60.60
2024-02-02T19:59:39.212Z,60.70
2024-02-02T20:02:07.062Z,60.80
2024-02-02T20:04:34.424Z,60.50
2024-02-02T20:07:01.809Z,61.00
2024-02-02T20:09:29.202Z,61.60
2024-02-02T20:11:56.925Z,61.50
2024-02-02T20:14:24.252Z,61.90
2024-02-02T20:16:52.806Z,62.10
2024-02-02T20:19:20.450Z,62.60
2024-02-02T20:21:48.741Z,62.70
2024-02-02T20:24:16.010Z,62.70
2024-02-02T20:26:44.142Z,63.20
2024-02-02T20:29:12.043Z,63.20
2024-02-02T20:31:42.641Z,63.80
2024-02-02T20:34:10.389Z,63.70
2024-02-02T20:36:37.861Z,63.20
2024-02-02T20:39:06.154Z,63.30
2024-02-02T20:41:33.936Z,64.40
2024-02-02T20:44:01.708Z,66.50
2024-02-02T20:46:29.341Z,68.50
2024-02-02T20:48:56.796Z,69.20
2024-02-02T20:51:24.252Z,69.30
2024-02-02T20:53:51.685Z,70.70
2024-02-02T20:56:19.096Z,70.00
2024-02-02T20:58:46.405Z,71.00
2024-02-02T21:01:13.919Z,70.40
2024-02-02T21:03:41.618Z,70.70
2024-02-02T21:06:09.964Z,69.80
2024-02-02T21:08:45.430Z,71.40
2024-02-02T21:11:12.917Z,70.70
2024-02-02T21:13:42.685Z,71.50
2024-02-02T21:16:10.052Z,70.50
2024-02-02T21:18:37.516Z,69.70
2024-02-02T21:21:07.643Z,69.20
2024-02-02T21:23:35.564Z,69.80
2024-02-02T21:26:04.058Z,70.90
2024-02-02T21:28:31.480Z,70.70
2024-02-02T21:31:01.369Z,70.70
2024-02-02T21:33:29.102Z,72.10
2024-02-02T21:35:58.438Z,73.10
2024-02-02T21:38:26.078Z,72.30
2024-02-02T21:40:54.069Z,72.10
2024-02-02T21:43:21.477Z,73.20
2024-02-02T21:45:50.265Z,73.40
2024-02-02T21:48:17.927Z,72.80
2024-02-02T21:50:45.300Z,71.70
2024-02-02T21:53:14.436Z,71.60
2024-02-02T21:55:42.364Z,72.20
2024-02-02T21:58:09.874Z,72.80
2024-02-02T22:00:37.456Z,73.30
2024-02-02T22:03:04.961Z,72.80
2024-02-02T22:05:32.394Z,73.20
2024-02-02T22:08:00.816Z,72.20
2024-02-02T22:10:28.864Z,72.00
2024-02-02T22:12:56.442Z,72.50
2024-02-02T22:15:23.822Z,70.30
2024-02-02T22:17:51.189Z,70.90
2024-02-02T22:20:18.929Z,71.70
2024-02-02T22:22:48.828Z,70.80
2024-02-02T22:25:16.192Z,71.40
2024-02-02T22:27:45.834Z,71.50
2024-02-02T22:30:13.765Z,71.40
2024-02-02T22:32:41.246Z,71.50
2024-02-02T22:35:08.729Z,71.90
2024-02-02T22:37:36.362Z,72.60
2024-02-02T22:40:05.160Z,72.30
2024-02-02T22:42:32.510Z,72.50
2024-02-02T22:44:59.817Z,73.60
2024-02-02T22:47:27.108Z,73.50
2024-02-02T22:49:54.379Z,73.90
2024-02-02T22:52:21.660Z,74.60
2024-02-02T22:54:48.996Z,74.60
2024-02-02T22:57:16.391Z,74.40
2024-02-02T22:59:50.424Z,73.70
2024-02-02T23:02:25.288Z,73.20
2024-02-02T23:04:52.791Z,72.70
2024-02-02T23:07:20.219Z,72.50
2024-02-02T23:09:48.512Z,73.20
2024-02-02T23:12:16.059Z,73.00
2024-02-02T23:14:43.370Z,73.80
2024-02-02T23:17:10.637Z,75.60
2024-02-02T23:19:42.105Z,74.90
2024-02-02T23:22:11.560Z,75.40
2024-02-02T23:24:38.894Z,75.30
2024-02-02T23:27:07.293Z,75.70
2024-02-02T23:29:43.915Z,76.80
2024-02-02T23:32:11.243Z,76.30
2024-02-02T23:34:41.937Z,76.10
2024-02-02T23:37:09.465Z,75.30
2024-02-02T23:39:36.766Z,76.40
2024-02-02T23:42:04.600Z,77.50
2024-02-02T23:44:33.680Z,77.90
2024-02-02T23:47:02.034Z,77.50
2024-02-02T23:49:29.605Z,77.40
2024-02-02T23:51:57.107Z,76.00
2024-02-02T23:54:24.749Z,75.00
2024-02-02T23:56:52.015Z,75.00
2024-02-02T23:59:19.450Z,75.60
